createdAt,value
2017-03-10T00:00:54.480Z,41.68
2017-03-10T00:02:05.146Z,41.59
2017-03-10T00:03:14.640Z,41.68
2017-03-10T00:04:24.106Z,41.59
2017-03-10T00:05:34.367Z,41.78
2017-03-10T00:06:44.273Z,41.68
2017-03-10T00:07:54.563Z,41.78
2017-03-10T00:09:04.449Z,41.78
2017-03-10T00:10:14.608Z,41.78
2017-03-10T00:11:24.886Z,41.68
2017-03-10T00:12:35.183Z,41.78
2017-03-10T00:13:45.472Z,41.68
2017-03-10T00:14:55.733Z,41.78
2017-03-10T00:16:06.583Z,41.68
2017-03-10T00:17:16.849Z,41.78
2017-03-10T00:18:27.146Z,41.88
2017-03-10T00:19:37.823Z,41.68
2017-03-10T00:20:48.469Z,41.68
2017-03-10T00:21:59.100Z,41.88
2017-03-10T00:23:08.579Z,41.49
2017-03-10T00:24:18.456Z,41.68
2017-03-10T00:25:29.137Z,41.78
2017-03-10T00:26:39.432Z,41.68
2017-03-10T00:27:50.467Z,41.88
2017-03-10T00:29:00.740Z,41.88
2017-03-10T00:30:11.008Z,41.88
2017-03-10T00:31:21.278Z,41.39
2017-03-10T00:32:31.932Z,41.49
2017-03-10T00:33:42.116Z,41.39
2017-03-10T00:34:52.397Z,41.2
2017-03-10T00:36:02.671Z,41.39
2017-03-10T00:37:12.969Z,41.39
2017-03-10T00:38:23.257Z,41.59
2017-03-10T00:39:34.076Z,41.3
2017-03-10T00:40:43.970Z,41.78
2017-03-10T00:41:54.544Z,41.2
2017-03-10T00:43:04.811Z,41.2
2017-03-10T00:44:15.481Z,41.3
2017-03-10T00:45:25.656Z,41.3
2017-03-10T00:46:35.538Z,41.3
2017-03-10T00:47:45.477Z,41.39
2017-03-10T00:48:55.737Z,41.39
2017-03-10T00:50:05.618Z,41.39
2017-03-10T00:51:16.260Z,41.2
2017-03-10T00:52:26.136Z,41.39
2017-03-10T00:53:36.401Z,41.3
2017-03-10T00:54:46.698Z,41.3
2017-03-10T00:55:57.360Z,41.3
2017-03-10T00:57:08.159Z,41.3
2017-03-10T00:58:18.835Z,41.3
2017-03-10T00:59:29.104Z,41.3
2017-03-10T01:00:39.777Z,41.3
2017-03-10T01:01:50.439Z,41.3
2017-03-10T01:03:00.966Z,41.3
2017-03-10T01:04:11.226Z,41.3
2017-03-10T01:05:21.907Z,41.3
2017-03-10T01:06:32.173Z,41.39
2017-03-10T01:07:42.838Z,41.2
2017-03-10T01:08:53.637Z,41.2
2017-03-10T01:10:03.557Z,41.2
2017-03-10T01:11:13.832Z,41.22
2017-03-10T01:12:24.502Z,41.2
2017-03-10T01:13:35.414Z,41.2
2017-03-10T01:14:45.861Z,41.39
2017-03-10T01:15:55.732Z,41.11
2017-03-10T01:17:05.630Z,41.2
2017-03-10T01:18:16.286Z,41.2
2017-03-10T01:19:26.566Z,41.2
2017-03-10T01:20:37.391Z,41.39
2017-03-10T01:21:47.659Z,41.2
2017-03-10T01:22:58.323Z,41.2
2017-03-10T01:24:08.635Z,41.2
2017-03-10T01:25:18.930Z,41.2
2017-03-10T01:26:29.352Z,41.2
2017-03-10T01:27:39.646Z,41.3
2017-03-10T01:28:50.291Z,41.3
2017-03-10T01:30:00.588Z,41.11
2017-03-10T01:31:10.508Z,41.11
2017-03-10T01:32:21.523Z,41.3
2017-03-10T01:33:31.802Z,41.11
2017-03-10T01:34:42.097Z,41.2
2017-03-10T01:35:52.656Z,41.2
2017-03-10T01:37:02.176Z,41.11
2017-03-10T01:38:12.717Z,41.2
2017-03-10T01:39:23.409Z,41.3
2017-03-10T01:40:33.698Z,41.11
2017-03-10T01:41:44.370Z,41.11
2017-03-10T01:42:54.252Z,41.11
2017-03-10T01:44:05.197Z,41.11
2017-03-10T01:45:15.495Z,41.2
2017-03-10T01:46:26.162Z,41.11
2017-03-10T01:47:36.421Z,41.11
2017-03-10T01:48:46.304Z,41.11
2017-03-10T01:49:56.971Z,41.11
2017-03-10T01:51:07.625Z,41.2
2017-03-10T01:52:18.304Z,41.11
2017-03-10T01:53:28.566Z,41.11
2017-03-10T01:54:38.832Z,41.3
2017-03-10T01:55:49.256Z,41.3
2017-03-10T01:56:59.545Z,41.3
2017-03-10T01:58:09.798Z,41.3
2017-03-10T01:59:20.471Z,41.2
2017-03-10T02:00:31.160Z,41.11
2017-03-10T02:01:41.581Z,41.2
2017-03-10T02:02:51.089Z,41.2
2017-03-10T02:04:01.342Z,41.2
2017-03-10T02:05:12.024Z,41.11
2017-03-10T02:06:21.928Z,41.3
2017-03-10T02:07:32.398Z,41.2
2017-03-10T02:08:42.297Z,41.3
2017-03-10T02:09:52.588Z,41.3
2017-03-10T02:11:02.857Z,41.11
2017-03-10T02:12:13.172Z,41.2
2017-03-10T02:13:23.610Z,41.3
2017-03-10T02:14:34.268Z,41.39
2017-03-10T02:15:44.937Z,41.39
2017-03-10T02:16:55.595Z,41.3
2017-03-10T02:18:05.490Z,41.39
2017-03-10T02:19:15.549Z,41.11
2017-03-10T02:20:25.810Z,41.2
2017-03-10T02:21:35.678Z,41.3
2017-03-10T02:22:45.961Z,41.3
2017-03-10T02:23:56.250Z,41.11
2017-03-10T02:25:06.772Z,41.39
2017-03-10T02:26:16.298Z,41.11
2017-03-10T02:27:26.562Z,41.2
2017-03-10T02:28:36.832Z,41.2
2017-03-10T02:29:47.115Z,41.11
2017-03-10T02:30:57.930Z,41.3
2017-03-10T02:32:08.595Z,41.2
2017-03-10T02:33:18.479Z,41.2
2017-03-10T02:34:28.390Z,41.2
2017-03-10T02:35:39.058Z,41.2
2017-03-10T02:36:49.120Z,41.2
2017-03-10T02:37:59.800Z,41.11
2017-03-10T02:39:09.696Z,41.2
2017-03-10T02:40:20.362Z,41.2
2017-03-10T02:41:30.647Z,41.2
2017-03-10T02:42:41.248Z,41.11
2017-03-10T02:43:51.514Z,41.11
2017-03-10T02:45:02.178Z,41.11
2017-03-10T02:46:12.848Z,41.11
2017-03-10T02:47:23.134Z,41.11
2017-03-10T02:48:33.585Z,41.11
2017-03-10T02:49:43.465Z,41.2
2017-03-10T02:50:54.126Z,41.11
2017-03-10T02:52:04.786Z,41.2
2017-03-10T02:53:15.056Z,41.01
2017-03-10T02:54:25.233Z,41.2
2017-03-10T02:55:35.881Z,41.11
2017-03-10T02:56:46.540Z,41.2
2017-03-10T02:57:56.819Z,41.01
2017-03-10T02:59:06.723Z,41.11
2017-03-10T03:00:17.287Z,41.2
2017-03-10T03:01:27.156Z,41.2
2017-03-10T03:02:37.413Z,41.11
2017-03-10T03:03:47.704Z,41.11
2017-03-10T03:04:57.984Z,41.11
2017-03-10T03:06:08.427Z,41.2
2017-03-10T03:07:19.100Z,41.11
2017-03-10T03:08:29.786Z,41.01
2017-03-10T03:09:40.052Z,41.2
2017-03-10T03:10:50.720Z,41.01
2017-03-10T03:12:01.528Z,41.01
2017-03-10T03:13:12.181Z,41.01
2017-03-10T03:14:22.838Z,41.01
2017-03-10T03:15:32.775Z,41.2
2017-03-10T03:16:41.885Z,41.11
2017-03-10T03:17:52.938Z,41.01
2017-03-10T03:19:03.627Z,41.2
2017-03-10T03:20:13.889Z,41.01
2017-03-10T03:21:23.775Z,41.2
2017-03-10T03:22:33.663Z,41.11
2017-03-10T03:23:44.098Z,41.2
2017-03-10T03:24:54.372Z,41.11
2017-03-10T03:26:04.282Z,41.2
2017-03-10T03:27:14.540Z,41.11
2017-03-10T03:28:25.248Z,41.01
2017-03-10T03:29:35.678Z,41.11
2017-03-10T03:30:45.946Z,41.11
2017-03-10T03:31:56.221Z,41.01
2017-03-10T03:33:05.322Z,41.01
2017-03-10T03:34:15.605Z,41.01
2017-03-10T03:35:26.420Z,41.01
2017-03-10T03:36:37.084Z,40.91
2017-03-10T03:37:47.349Z,41.01
2017-03-10T03:38:58.015Z,41.11
2017-03-10T03:40:08.329Z,41.11
2017-03-10T03:41:18.489Z,40.91
2017-03-10T03:42:28.376Z,41.01
2017-03-10T03:43:39.042Z,41.01
2017-03-10T03:44:49.345Z,41.01
2017-03-10T03:46:00.007Z,41.11
2017-03-10T03:47:10.243Z,41.01
2017-03-10T03:48:20.529Z,40.91
2017-03-10T03:49:31.194Z,40.91
2017-03-10T03:50:41.055Z,41.01
2017-03-10T03:51:51.720Z,40.91
2017-03-10T03:53:02.639Z,40.91
2017-03-10T03:54:13.289Z,40.91
2017-03-10T03:55:23.578Z,41.11
2017-03-10T03:56:33.477Z,40.81
2017-03-10T03:57:43.759Z,41.11
2017-03-10T03:58:54.396Z,41.01
2017-03-10T04:00:04.286Z,41.01
2017-03-10T04:01:14.555Z,40.91
2017-03-10T04:02:25.204Z,41.01
2017-03-10T04:03:35.099Z,41.01
2017-03-10T04:04:45.991Z,40.91
2017-03-10T04:05:56.668Z,41.01
2017-03-10T04:07:06.937Z,41.01
2017-03-10T04:08:16.833Z,41.01
2017-03-10T04:09:27.099Z,41.11
2017-03-10T04:10:37.510Z,40.81
2017-03-10T04:11:47.770Z,40.91
2017-03-10T04:12:58.055Z,40.91
2017-03-10T04:14:07.951Z,40.91
2017-03-10T04:15:18.229Z,41.01
2017-03-10T04:16:28.978Z,40.91
2017-03-10T04:17:39.258Z,40.81
2017-03-10T04:18:49.932Z,40.81
2017-03-10T04:19:59.838Z,41.01
2017-03-10T04:21:10.262Z,40.91
2017-03-10T04:22:20.649Z,40.91
2017-03-10T04:23:30.914Z,41.01
2017-03-10T04:24:41.180Z,40.91
2017-03-10T04:25:51.458Z,40.91
2017-03-10T04:27:02.109Z,40.91
2017-03-10T04:28:13.091Z,40.81
2017-03-10T04:29:23.744Z,40.91
2017-03-10T04:30:33.649Z,40.91
2017-03-10T04:31:43.545Z,40.81
2017-03-10T04:32:53.802Z,40.72
2017-03-10T04:34:04.597Z,40.91
2017-03-10T04:35:15.263Z,40.81
2017-03-10T04:36:25.142Z,40.91
2017-03-10T04:37:35.431Z,40.91
2017-03-10T04:38:45.715Z,40.91
2017-03-10T04:39:55.907Z,40.91
2017-03-10T04:41:05.819Z,40.72
2017-03-10T04:42:16.476Z,41.11
2017-03-10T04:43:27.161Z,40.72
2017-03-10T04:44:37.426Z,40.81
2017-03-10T04:45:47.621Z,40.91
2017-03-10T04:46:57.897Z,40.91
2017-03-10T04:48:07.786Z,40.81
2017-03-10T04:49:18.468Z,40.81
2017-03-10T04:50:29.134Z,40.91
2017-03-10T04:51:39.762Z,40.81
2017-03-10T04:52:50.427Z,40.91
2017-03-10T04:54:01.078Z,40.81
2017-03-10T04:55:11.737Z,40.81
2017-03-10T04:56:22.013Z,40.91
2017-03-10T04:57:32.199Z,41.01
2017-03-10T04:58:42.872Z,40.91
2017-03-10T04:59:53.148Z,40.81
2017-03-10T05:01:03.816Z,40.81
2017-03-10T05:02:14.494Z,40.81
2017-03-10T05:03:25.495Z,40.81
2017-03-10T05:04:35.799Z,40.81
2017-03-10T05:05:45.679Z,40.72
2017-03-10T05:06:56.342Z,40.81
2017-03-10T05:08:06.262Z,40.72
2017-03-10T05:09:16.508Z,40.72
2017-03-10T05:10:26.383Z,40.91
2017-03-10T05:11:36.666Z,40.91
2017-03-10T05:12:47.342Z,40.91
2017-03-10T05:13:57.628Z,40.91
2017-03-10T05:15:08.462Z,40.81
2017-03-10T05:16:18.723Z,41.01
2017-03-10T05:17:28.999Z,40.81
2017-03-10T05:18:39.280Z,40.91
2017-03-10T05:19:49.573Z,40.81
2017-03-10T05:21:00.379Z,40.91
2017-03-10T05:22:11.065Z,40.91
2017-03-10T05:23:20.955Z,40.91
2017-03-10T05:24:31.241Z,41.01
2017-03-10T05:25:41.496Z,40.91
2017-03-10T05:26:52.137Z,40.91
2017-03-10T05:28:02.789Z,40.91
2017-03-10T05:29:12.667Z,40.91
2017-03-10T05:30:23.329Z,40.81
2017-03-10T05:31:34.008Z,40.91
2017-03-10T05:32:43.789Z,40.91
2017-03-10T05:33:54.462Z,41.01
2017-03-10T05:35:04.760Z,40.91
2017-03-10T05:36:15.431Z,40.91
2017-03-10T05:37:26.154Z,40.91
2017-03-10T05:38:36.967Z,40.63
2017-03-10T05:39:47.247Z,40.53
2017-03-10T05:40:57.154Z,40.63
2017-03-10T05:42:07.427Z,40.43
2017-03-10T05:43:17.714Z,40.53
2017-03-10T05:44:27.698Z,40.26
2017-03-10T05:45:37.565Z,40.26
2017-03-10T05:46:48.440Z,39.97
2017-03-10T05:47:58.765Z,39.87
2017-03-10T05:49:09.448Z,39.78
2017-03-10T05:50:19.892Z,39.59
2017-03-10T05:51:30.561Z,39.2
2017-03-10T05:52:40.850Z,39.12
2017-03-10T05:53:51.496Z,39.31
2017-03-10T05:55:01.789Z,39.41
2017-03-10T05:56:11.973Z,39.51
2017-03-10T05:57:22.642Z,39.12
2017-03-10T05:58:33.293Z,39.03
2017-03-10T05:59:43.951Z,38.93
2017-03-10T06:00:54.234Z,39.22
2017-03-10T06:02:05.053Z,39.31
2017-03-10T06:03:15.339Z,39.31
2017-03-10T06:04:25.616Z,39.31
2017-03-10T06:05:36.290Z,39.03
2017-03-10T06:06:46.953Z,39.04
2017-03-10T06:07:57.701Z,38.95
2017-03-10T06:09:07.960Z,38.54
2017-03-10T06:10:18.229Z,38.66
2017-03-10T06:11:28.478Z,38.76
2017-03-10T06:12:39.154Z,38.46
2017-03-10T06:13:48.836Z,38.37
2017-03-10T06:14:59.545Z,38.37
2017-03-10T06:16:10.168Z,38.28
2017-03-10T06:17:20.427Z,38.28
2017-03-10T06:18:30.705Z,38.37
2017-03-10T06:19:41.265Z,38.37
2017-03-10T06:20:51.926Z,38.29
2017-03-10T06:22:02.615Z,38.29
2017-03-10T06:23:12.100Z,38.1
2017-03-10T06:24:22.794Z,38.1
2017-03-10T06:25:33.224Z,38.1
2017-03-10T06:26:43.522Z,38.01
2017-03-10T06:27:53.422Z,37.91
2017-03-10T06:29:04.100Z,37.71
2017-03-10T06:30:13.999Z,37.71
2017-03-10T06:31:25.037Z,37.91
2017-03-10T06:32:35.302Z,37.71
2017-03-10T06:33:45.970Z,37.81
2017-03-10T06:34:55.865Z,37.91
2017-03-10T06:36:05.734Z,37.73
2017-03-10T06:37:16.705Z,37.73
2017-03-10T06:38:26.603Z,37.83
2017-03-10T06:39:37.262Z,37.93
2017-03-10T06:40:47.540Z,37.73
2017-03-10T06:41:58.238Z,37.93
2017-03-10T06:43:08.773Z,37.73
2017-03-10T06:44:18.680Z,37.63
2017-03-10T06:45:29.355Z,37.73
2017-03-10T06:46:39.223Z,37.63
2017-03-10T06:47:49.517Z,37.63
2017-03-10T06:49:00.470Z,37.54
2017-03-10T06:50:10.355Z,37.54
2017-03-10T06:51:20.257Z,37.63
2017-03-10T06:52:30.965Z,37.54
2017-03-10T06:53:41.259Z,37.46
2017-03-10T06:54:51.695Z,37.37
2017-03-10T06:56:01.971Z,37.46
2017-03-10T06:57:12.274Z,37.46
2017-03-10T06:58:22.175Z,37.46
2017-03-10T06:59:32.831Z,37.56
2017-03-10T07:00:43.611Z,37.37
2017-03-10T07:01:53.910Z,37.46
2017-03-10T07:03:03.850Z,37.37
2017-03-10T07:04:14.141Z,37.65
2017-03-10T07:05:24.806Z,37.65
2017-03-10T07:06:35.804Z,37.65
2017-03-10T07:07:45.701Z,37.85
2017-03-10T07:08:55.962Z,37.85
2017-03-10T07:10:06.610Z,37.85
2017-03-10T07:11:16.099Z,37.75
2017-03-10T07:12:26.757Z,37.65
2017-03-10T07:13:37.439Z,37.93
2017-03-10T07:14:47.715Z,37.83
2017-03-10T07:15:57.998Z,37.63
2017-03-10T07:17:08.662Z,38.02
2017-03-10T07:18:19.292Z,37.83
2017-03-10T07:19:28.839Z,37.73
2017-03-10T07:20:38.731Z,37.63
2017-03-10T07:21:49.427Z,37.93
2017-03-10T07:22:59.332Z,37.83
2017-03-10T07:24:09.910Z,38.02
2017-03-10T07:25:20.186Z,38.12
2017-03-10T07:26:30.103Z,38.31
2017-03-10T07:27:40.015Z,38.6
2017-03-10T07:28:50.313Z,38.41
2017-03-10T07:30:01.286Z,38.41
2017-03-10T07:31:11.593Z,38.21
2017-03-10T07:32:22.239Z,38.41
2017-03-10T07:33:32.116Z,38.31
2017-03-10T07:34:42.787Z,38.21
2017-03-10T07:35:53.331Z,38.31
2017-03-10T07:37:03.607Z,38.41
2017-03-10T07:38:13.895Z,38.6
2017-03-10T07:39:23.796Z,38.6
2017-03-10T07:40:33.678Z,38.6
2017-03-10T07:41:43.730Z,38.51
2017-03-10T07:42:54.049Z,38.6
2017-03-10T07:44:04.338Z,38.79
2017-03-10T07:45:15.019Z,38.6
2017-03-10T07:46:25.698Z,38.87
2017-03-10T07:47:36.511Z,38.78
2017-03-10T07:48:46.806Z,38.68
2017-03-10T07:49:57.475Z,38.78
2017-03-10T07:51:07.392Z,38.68
2017-03-10T07:52:17.663Z,38.78
2017-03-10T07:53:28.122Z,38.97
2017-03-10T07:54:38.813Z,39.16
2017-03-10T07:55:49.085Z,39.06
2017-03-10T07:56:59.800Z,39.45
2017-03-10T07:58:10.071Z,39.26
2017-03-10T07:59:20.513Z,39.45
2017-03-10T08:00:31.181Z,39.45
2017-03-10T08:01:41.481Z,39.45
2017-03-10T08:02:52.143Z,39.36
2017-03-10T08:04:02.818Z,39.36
2017-03-10T08:05:13.412Z,39.45
2017-03-10T08:06:23.699Z,39.45
2017-03-10T08:07:33.987Z,39.54
2017-03-10T08:08:44.649Z,39.36
2017-03-10T08:09:54.932Z,39.36
2017-03-10T08:11:05.586Z,39.45
2017-03-10T08:12:15.877Z,39.36
2017-03-10T08:13:25.753Z,39.36
2017-03-10T08:14:36.320Z,39.36
2017-03-10T08:15:46.611Z,39.36
2017-03-10T08:16:57.527Z,39.45
2017-03-10T08:18:08.224Z,39.36
2017-03-10T08:19:18.507Z,39.45
2017-03-10T08:20:28.404Z,39.36
2017-03-10T08:21:39.073Z,39.45
2017-03-10T08:22:49.599Z,39.36
2017-03-10T08:24:00.258Z,39.36
2017-03-10T08:25:10.975Z,39.26
2017-03-10T08:26:21.282Z,39.36
2017-03-10T08:27:31.570Z,39.06
2017-03-10T08:28:42.131Z,38.97
2017-03-10T08:29:53.021Z,39.36
2017-03-10T08:31:03.788Z,39.06
2017-03-10T08:32:14.081Z,39.06
2017-03-10T08:33:24.357Z,39.06
2017-03-10T08:34:34.503Z,39.26
2017-03-10T08:35:44.388Z,39.06
2017-03-10T08:36:55.059Z,39.36
2017-03-10T08:38:04.570Z,38.87
2017-03-10T08:39:15.238Z,39.16
2017-03-10T08:40:25.680Z,38.87
2017-03-10T08:41:34.414Z,39.26
2017-03-10T08:42:44.702Z,39.26
2017-03-10T08:43:55.350Z,39.36
2017-03-10T08:45:06.017Z,39.36
2017-03-10T08:46:16.094Z,39.45
2017-03-10T08:47:26.389Z,39.45
2017-03-10T08:48:36.668Z,39.45
2017-03-10T08:49:46.942Z,39.36
2017-03-10T08:50:57.618Z,39.36
2017-03-10T08:52:08.438Z,38.97
2017-03-10T08:53:18.746Z,38.97
2017-03-10T08:54:29.028Z,38.87
2017-03-10T08:55:39.707Z,38.97
2017-03-10T08:56:50.372Z,39.26
2017-03-10T08:58:00.416Z,39.06
2017-03-10T08:59:10.360Z,39.36
2017-03-10T09:00:21.042Z,39.45
2017-03-10T09:01:30.935Z,39.36
2017-03-10T09:02:41.226Z,39.36
2017-03-10T09:03:52.220Z,39.06
2017-03-10T09:05:02.887Z,39.45
2017-03-10T09:06:13.566Z,39.06
2017-03-10T09:07:24.237Z,39.06
2017-03-10T09:08:34.524Z,38.97
2017-03-10T09:09:45.173Z,38.87
2017-03-10T09:10:55.086Z,39.06
2017-03-10T09:12:05.378Z,38.97
2017-03-10T09:13:15.298Z,38.97
2017-03-10T09:14:25.586Z,38.78
2017-03-10T09:15:36.031Z,39.06
2017-03-10T09:16:46.685Z,38.95
2017-03-10T09:17:56.953Z,39.04
2017-03-10T09:19:07.666Z,38.85
2017-03-10T09:20:17.956Z,38.95
2017-03-10T09:21:28.931Z,38.97
2017-03-10T09:22:39.215Z,38.85
2017-03-10T09:23:49.895Z,38.95
2017-03-10T09:25:00.203Z,38.95
2017-03-10T09:26:10.880Z,38.85
2017-03-10T09:27:21.024Z,38.87
2017-03-10T09:28:30.977Z,39.04
2017-03-10T09:29:41.274Z,39.24
2017-03-10T09:30:51.933Z,39.14
2017-03-10T09:32:02.196Z,39.24
2017-03-10T09:33:12.716Z,39.34
2017-03-10T09:34:23.016Z,39.34
2017-03-10T09:35:33.704Z,39.43
2017-03-10T09:36:43.196Z,39.43
2017-03-10T09:37:53.461Z,39.34
2017-03-10T09:39:04.297Z,39.43
2017-03-10T09:40:15.001Z,39.43
2017-03-10T09:41:25.297Z,39.43
2017-03-10T09:42:35.972Z,39.43
2017-03-10T09:43:46.272Z,39.43
2017-03-10T09:44:56.704Z,39.43
2017-03-10T09:46:06.592Z,39.24
2017-03-10T09:47:16.095Z,38.85
2017-03-10T09:48:26.786Z,38.76
2017-03-10T09:49:37.447Z,38.85
2017-03-10T09:50:48.404Z,38.76
2017-03-10T09:51:58.329Z,38.56
2017-03-10T09:53:09.027Z,38.76
2017-03-10T09:54:19.328Z,38.46
2017-03-10T09:55:29.627Z,38.66
2017-03-10T09:56:40.046Z,38.68
2017-03-10T09:57:50.716Z,38.46
2017-03-10T09:59:01.391Z,38.46
2017-03-10T10:00:12.067Z,38.46
2017-03-10T10:01:21.966Z,38.46
2017-03-10T10:02:32.384Z,38.46
2017-03-10T10:03:42.262Z,38.46
2017-03-10T10:04:50.975Z,38.46
2017-03-10T10:06:01.245Z,38.56
2017-03-10T10:07:11.505Z,38.46
2017-03-10T10:08:22.447Z,38.46
2017-03-10T10:09:31.961Z,38.56
2017-03-10T10:10:41.868Z,38.56
2017-03-10T10:11:52.154Z,38.66
2017-03-10T10:13:02.442Z,38.76
2017-03-10T10:14:13.040Z,38.56
2017-03-10T10:15:23.316Z,38.56
2017-03-10T10:16:32.818Z,38.56
2017-03-10T10:17:43.494Z,38.46
2017-03-10T10:18:53.760Z,38.56
2017-03-10T10:20:04.189Z,38.28
2017-03-10T10:21:14.089Z,38.56
2017-03-10T10:22:24.796Z,38.08
2017-03-10T10:23:34.716Z,38.28
2017-03-10T10:24:45.032Z,38.08
2017-03-10T10:25:56.003Z,38.28
2017-03-10T10:27:06.291Z,38.18
2017-03-10T10:28:16.566Z,38.28
2017-03-10T10:29:27.228Z,38.37
2017-03-10T10:30:37.946Z,38.28
2017-03-10T10:31:48.568Z,38.37
2017-03-10T10:32:58.462Z,38.28
2017-03-10T10:34:08.759Z,38.28
2017-03-10T10:35:19.439Z,38.28
2017-03-10T10:36:29.749Z,38.37
2017-03-10T10:37:40.696Z,38.28
2017-03-10T10:38:51.387Z,38.28
2017-03-10T10:40:01.675Z,38.37
2017-03-10T10:41:11.961Z,38.18
2017-03-10T10:42:22.253Z,38.18
2017-03-10T10:43:32.450Z,38.18
2017-03-10T10:44:42.731Z,38.28
2017-03-10T10:45:53.025Z,38.28
2017-03-10T10:47:03.698Z,38.18
2017-03-10T10:48:13.979Z,38.18
2017-03-10T10:49:24.995Z,38.46
2017-03-10T10:50:35.285Z,38.37
2017-03-10T10:51:45.975Z,38.37
2017-03-10T10:52:56.262Z,38.08
2017-03-10T10:54:05.771Z,38.08
2017-03-10T10:55:16.162Z,38.08
2017-03-10T10:56:26.443Z,38.28
2017-03-10T10:57:37.125Z,38.28
2017-03-10T10:58:46.662Z,38.66
2017-03-10T10:59:57.340Z,38.28
2017-03-10T11:01:07.785Z,38.37
2017-03-10T11:02:17.672Z,38.46
2017-03-10T11:03:27.580Z,38.56
2017-03-10T11:04:37.929Z,38.56
2017-03-10T11:05:48.599Z,38.56
2017-03-10T11:06:58.738Z,38.56
2017-03-10T11:08:09.028Z,38.56
2017-03-10T11:09:19.303Z,38.46
2017-03-10T11:10:29.586Z,38.66
2017-03-10T11:11:39.921Z,38.66
2017-03-10T11:12:50.350Z,38.37
2017-03-10T11:14:00.320Z,38.56
2017-03-10T11:15:10.601Z,38.66
2017-03-10T11:16:21.318Z,38.66
2017-03-10T11:17:31.626Z,38.54
2017-03-10T11:18:42.080Z,38.56
2017-03-10T11:19:52.375Z,38.46
2017-03-10T11:21:02.974Z,38.46
2017-03-10T11:22:13.272Z,38.56
2017-03-10T11:23:23.967Z,38.37
2017-03-10T11:24:34.415Z,38.66
2017-03-10T11:25:45.085Z,38.56
2017-03-10T11:26:55.368Z,38.45
2017-03-10T11:28:05.647Z,38.56
2017-03-10T11:29:15.926Z,38.46
2017-03-10T11:30:26.005Z,38.46
2017-03-10T11:31:36.294Z,38.64
2017-03-10T11:32:46.594Z,38.46
2017-03-10T11:33:57.261Z,38.66
2017-03-10T11:35:07.560Z,38.66
2017-03-10T11:36:17.157Z,38.54
2017-03-10T11:37:27.440Z,38.54
2017-03-10T11:38:37.819Z,38.54
2017-03-10T11:39:48.511Z,38.54
2017-03-10T11:40:58.423Z,38.54
2017-03-10T11:42:09.345Z,38.54
2017-03-10T11:43:20.050Z,38.35
2017-03-10T11:44:30.319Z,38.54
2017-03-10T11:45:40.616Z,38.45
2017-03-10T11:46:50.891Z,38.45
2017-03-10T11:48:01.786Z,38.74
2017-03-10T11:49:12.455Z,38.64
2017-03-10T11:50:23.138Z,38.35
2017-03-10T11:51:33.033Z,38.54
2017-03-10T11:52:43.721Z,38.35
2017-03-10T11:53:54.342Z,38.64
2017-03-10T11:55:05.049Z,38.64
2017-03-10T11:56:14.940Z,38.26
2017-03-10T11:57:25.589Z,38.16
2017-03-10T11:58:35.903Z,38.16
2017-03-10T11:59:46.343Z,38.06
2017-03-10T12:00:56.658Z,38.54
2017-03-10T12:02:07.343Z,38.16
2017-03-10T12:03:17.652Z,38.45
2017-03-10T12:04:27.562Z,38.35
2017-03-10T12:05:37.418Z,38.35
2017-03-10T12:06:47.704Z,38.26
2017-03-10T12:07:57.593Z,38.06
2017-03-10T12:09:07.498Z,38.06
2017-03-10T12:10:17.391Z,38.26
2017-03-10T12:11:27.400Z,38.16
2017-03-10T12:12:36.885Z,38.26
2017-03-10T12:13:47.574Z,38.26
2017-03-10T12:14:57.854Z,38.35
2017-03-10T12:16:08.536Z,38.16
2017-03-10T12:17:19.489Z,38.16
2017-03-10T12:18:30.316Z,38.26
2017-03-10T12:19:40.655Z,38.26
2017-03-10T12:20:51.321Z,38.26
2017-03-10T12:22:02.007Z,38.26
2017-03-10T12:23:12.841Z,38.26
2017-03-10T12:24:23.575Z,38.16
2017-03-10T12:25:33.854Z,38.16
2017-03-10T12:26:43.763Z,38.26
2017-03-10T12:27:54.050Z,38.26
2017-03-10T12:29:04.258Z,38.16
2017-03-10T12:30:14.152Z,38.26
2017-03-10T12:31:24.075Z,38.16
2017-03-10T12:32:34.762Z,38.16
2017-03-10T12:33:44.701Z,38.26
2017-03-10T12:34:55.458Z,38.35
2017-03-10T12:36:06.166Z,38.26
2017-03-10T12:37:16.056Z,38.16
2017-03-10T12:38:26.353Z,38.35
2017-03-10T12:39:36.655Z,38.26
2017-03-10T12:40:47.278Z,38.26
2017-03-10T12:41:57.195Z,38.35
2017-03-10T12:43:07.898Z,38.35
2017-03-10T12:44:18.199Z,38.26
2017-03-10T12:45:28.876Z,38.45
2017-03-10T12:46:39.307Z,38.35
2017-03-10T12:47:49.595Z,38.26
2017-03-10T12:48:59.858Z,38.35
2017-03-10T12:50:10.540Z,38.54
2017-03-10T12:51:20.839Z,38.35
2017-03-10T12:52:31.668Z,38.35
2017-03-10T12:53:41.978Z,38.54
2017-03-10T12:54:52.259Z,38.35
2017-03-10T12:56:02.942Z,38.35
2017-03-10T12:57:13.617Z,38.26
2017-03-10T12:58:24.440Z,38.26
2017-03-10T12:59:35.099Z,38.45
2017-03-10T13:00:45.809Z,38.74
2017-03-10T13:01:56.458Z,38.26
2017-03-10T13:03:06.758Z,38.26
2017-03-10T13:04:17.725Z,38.26
2017-03-10T13:05:28.396Z,38.06
2017-03-10T13:06:38.704Z,38.16
2017-03-10T13:07:49.390Z,38.16
2017-03-10T13:09:00.078Z,38.06
2017-03-10T13:10:10.864Z,38.06
2017-03-10T13:11:21.540Z,37.96
2017-03-10T13:12:31.811Z,38.26
2017-03-10T13:13:41.319Z,38.06
2017-03-10T13:14:51.591Z,38.16
2017-03-10T13:16:02.174Z,38.16
2017-03-10T13:17:12.452Z,38.06
2017-03-10T13:18:22.729Z,37.87
2017-03-10T13:19:32.997Z,38.06
2017-03-10T13:20:43.667Z,38.16
2017-03-10T13:21:53.839Z,37.96
2017-03-10T13:23:04.127Z,38.06
2017-03-10T13:24:13.246Z,38.06
2017-03-10T13:25:23.929Z,37.96
2017-03-10T13:26:34.221Z,37.96
2017-03-10T13:27:44.628Z,37.87
2017-03-10T13:28:55.330Z,37.77
2017-03-10T13:30:05.652Z,37.77
2017-03-10T13:31:15.155Z,37.77
2017-03-10T13:32:25.718Z,37.96
2017-03-10T13:33:36.305Z,37.87
2017-03-10T13:34:46.572Z,37.77
2017-03-10T13:35:57.248Z,37.77
2017-03-10T13:37:07.929Z,37.96
2017-03-10T13:38:18.204Z,37.77
2017-03-10T13:39:29.028Z,37.87
2017-03-10T13:40:38.932Z,37.87
2017-03-10T13:41:49.203Z,37.87
2017-03-10T13:42:59.494Z,37.87
2017-03-10T13:44:09.773Z,37.77
2017-03-10T13:45:20.158Z,37.77
2017-03-10T13:46:30.447Z,37.68
2017-03-10T13:47:41.106Z,37.77
2017-03-10T13:48:51.394Z,37.68
2017-03-10T13:50:02.061Z,37.58
2017-03-10T13:51:12.495Z,37.58
2017-03-10T13:52:22.381Z,37.58
2017-03-10T13:53:32.311Z,37.58
2017-03-10T13:54:42.216Z,37.87
2017-03-10T13:55:52.525Z,37.68
2017-03-10T13:57:03.352Z,37.77
2017-03-10T13:58:13.237Z,37.68
2017-03-10T13:59:23.905Z,37.68
2017-03-10T14:00:34.160Z,37.77
2017-03-10T14:01:44.430Z,37.58
2017-03-10T14:02:54.859Z,37.58
2017-03-10T14:04:05.528Z,37.58
2017-03-10T14:05:15.413Z,37.68
2017-03-10T14:06:25.692Z,37.68
2017-03-10T14:07:35.967Z,37.58
2017-03-10T14:08:46.379Z,37.77
2017-03-10T14:09:56.665Z,37.58
2017-03-10T14:11:06.952Z,37.87
2017-03-10T14:12:17.233Z,37.87
2017-03-10T14:13:27.117Z,37.77
2017-03-10T14:14:38.035Z,37.96
2017-03-10T14:15:47.926Z,37.87
2017-03-10T14:16:58.598Z,37.87
2017-03-10T14:18:08.891Z,37.87
2017-03-10T14:19:19.148Z,37.87
2017-03-10T14:20:29.700Z,37.58
2017-03-10T14:21:40.368Z,37.77
2017-03-10T14:22:50.638Z,37.68
2017-03-10T14:24:01.320Z,37.68
2017-03-10T14:25:11.218Z,37.58
2017-03-10T14:26:21.749Z,37.68
2017-03-10T14:27:32.398Z,37.77
2017-03-10T14:28:43.086Z,37.77
2017-03-10T14:29:53.359Z,37.68
2017-03-10T14:31:02.909Z,37.77
2017-03-10T14:32:13.504Z,37.77
2017-03-10T14:33:24.165Z,37.87
2017-03-10T14:34:34.432Z,37.96
2017-03-10T14:35:44.699Z,37.87
2017-03-10T14:36:55.361Z,37.77
2017-03-10T14:38:05.225Z,37.68
2017-03-10T14:39:15.901Z,37.87
2017-03-10T14:40:26.179Z,37.68
2017-03-10T14:41:36.466Z,37.58
2017-03-10T14:42:46.375Z,37.77
2017-03-10T14:43:57.354Z,37.77
2017-03-10T14:45:07.272Z,37.77
2017-03-10T14:46:17.563Z,37.77
2017-03-10T14:47:27.896Z,37.77
2017-03-10T14:48:38.560Z,37.87
2017-03-10T14:49:49.509Z,37.68
2017-03-10T14:51:00.200Z,37.77
2017-03-10T14:52:10.853Z,37.77
2017-03-10T14:53:20.758Z,37.68
2017-03-10T14:54:31.437Z,37.77
2017-03-10T14:55:42.254Z,37.68
2017-03-10T14:56:52.579Z,37.48
2017-03-10T14:58:02.467Z,37.68
2017-03-10T14:59:13.141Z,37.68
2017-03-10T15:00:23.797Z,37.58
2017-03-10T15:01:34.414Z,37.48
2017-03-10T15:02:44.681Z,37.58
2017-03-10T15:03:55.392Z,37.77
2017-03-10T15:05:05.654Z,37.68
2017-03-10T15:06:15.959Z,37.58
2017-03-10T15:07:26.124Z,37.68
2017-03-10T15:08:36.791Z,37.58
2017-03-10T15:09:47.061Z,37.77